sensor_id;sensor_type;location;lat;lon;timestamp;temperature;humidity
20740;DHT22;10530;49.968;19.844;2023-05-07T00:03:12;11.40;99.90
20740;DHT22;10530;49.968;19.844;2023-05-07T00:08:16;11.40;99.90
20740;DHT22;10530;49.968;19.844;2023-05-07T00:13:19;11.40;99.90
20740;DHT22;10530;49.968;19.844;2023-05-07T00:18:21;11.30;99.90
20740;DHT22;10530;49.968;19.844;2023-05-07T00:23:24;11.40;99.90
20740;DHT22;10530;49.968;19.844;2023-05-07T00:28:27;11.30;99.90
20740;DHT22;10530;49.968;19.844;2023-05-07T00:33:30;11.30;99.90
20740;DHT22;10530;49.968;19.844;2023-05-07T00:38:33;11.30;99.90
20740;DHT22;10530;49.968;19.844;2023-05-07T00:43:35;11.20;99.90
20740;DHT22;10530;49.968;19.844;2023-05-07T00:48:38;11.20;99.90
20740;DHT22;10530;49.968;19.844;2023-05-07T00:53:41;11.20;99.90
20740;DHT22;10530;49.968;19.844;2023-05-07T00:58:44;11.30;99.90
20740;DHT22;10530;49.968;19.844;2023-05-07T01:03:47;11.30;99.90
20740;DHT22;10530;49.968;19.844;2023-05-07T01:08:51;11.20;99.90
20740;DHT22;10530;49.968;19.844;2023-05-07T01:13:55;11.30;99.90
20740;DHT22;10530;49.968;19.844;2023-05-07T01:19:00;11.30;99.90
20740;DHT22;10530;49.968;19.844;2023-05-07T01:24:03;11.20;99.90
20740;DHT22;10530;49.968;19.844;2023-05-07T01:29:07;11.10;99.90
20740;DHT22;10530;49.968;19.844;2023-05-07T01:34:11;11.10;99.90
20740;DHT22;10530;49.968;19.844;2023-05-07T01:39:15;11.10;99.90
20740;DHT22;10530;49.968;19.844;2023-05-07T01:44:19;11.00;99.90
20740;DHT22;10530;49.968;19.844;2023-05-07T01:49:22;11.00;99.90
20740;DHT22;10530;49.968;19.844;2023-05-07T01:54:26;11.00;99.90
20740;DHT22;10530;49.968;19.844;2023-05-07T01:59:32;11.00;99.90
20740;DHT22;10530;49.968;19.844;2023-05-07T02:04:35;11.00;99.90
20740;DHT22;10530;49.968;19.844;2023-05-07T02:09:39;10.90;99.90
20740;DHT22;10530;49.968;19.844;2023-05-07T02:14:42;10.90;99.90
20740;DHT22;10530;49.968;19.844;2023-05-07T02:19:46;10.90;99.90
20740;DHT22;10530;49.968;19.844;2023-05-07T02:24:48;10.90;99.90
20740;DHT22;10530;49.968;19.844;2023-05-07T02:29:51;10.70;99.90
20740;DHT22;10530;49.968;19.844;2023-05-07T02:34:54;10.40;99.90
20740;DHT22;10530;49.968;19.844;2023-05-07T02:39:56;10.20;99.90
20740;DHT22;10530;49.968;19.844;2023-05-07T02:44:59;10.10;99.90
20740;DHT22;10530;49.968;19.844;2023-05-07T02:50:04;9.90;99.90
20740;DHT22;10530;49.968;19.844;2023-05-07T02:55:07;9.80;99.90
20740;DHT22;10530;49.968;19.844;2023-05-07T03:00:15;9.70;99.90
20740;DHT22;10530;49.968;19.844;2023-05-07T03:05:26;9.60;99.90
20740;DHT22;10530;49.968;19.844;2023-05-07T03:10:28;9.60;99.90
20740;DHT22;10530;49.968;19.844;2023-05-07T03:15:32;9.60;99.90
20740;DHT22;10530;49.968;19.844;2023-05-07T03:20:34;9.60;99.90
20740;DHT22;10530;49.968;19.844;2023-05-07T03:25:39;9.50;99.90
20740;DHT22;10530;49.968;19.844;2023-05-07T03:30:42;9.60;99.90
20740;DHT22;10530;49.968;19.844;2023-05-07T03:35:44;9.60;99.90
20740;DHT22;10530;49.968;19.844;2023-05-07T03:40:53;9.50;99.90
20740;DHT22;10530;49.968;19.844;2023-05-07T03:45:55;9.40;99.90
20740;DHT22;10530;49.968;19.844;2023-05-07T03:51:01;9.40;99.90
20740;DHT22;10530;49.968;19.844;2023-05-07T03:56:07;9.30;99.90
20740;DHT22;10530;49.968;19.844;2023-05-07T04:01:12;9.30;99.90
20740;DHT22;10530;49.968;19.844;2023-05-07T04:06:16;9.20;99.90
20740;DHT22;10530;49.968;19.844;2023-05-07T04:11:22;9.20;99.90
20740;DHT22;10530;49.968;19.844;2023-05-07T04:16:25;9.10;99.90
20740;DHT22;10530;49.968;19.844;2023-05-07T04:21:28;9.20;99.90
20740;DHT22;10530;49.968;19.844;2023-05-07T04:26:32;9.30;99.90
20740;DHT22;10530;49.968;19.844;2023-05-07T04:31:35;9.20;99.90
20740;DHT22;10530;49.968;19.844;2023-05-07T04:36:38;9.10;99.90
20740;DHT22;10530;49.968;19.844;2023-05-07T04:41:45;9.20;99.90
20740;DHT22;10530;49.968;19.844;2023-05-07T04:46:48;9.10;99.90
20740;DHT22;10530;49.968;19.844;2023-05-07T04:51:51;9.10;99.90
20740;DHT22;10530;49.968;19.844;2023-05-07T04:56:56;9.10;99.90
20740;DHT22;10530;49.968;19.844;2023-05-07T05:02:00;8.90;99.90
20740;DHT22;10530;49.968;19.844;2023-05-07T05:07:04;8.70;99.90
20740;DHT22;10530;49.968;19.844;2023-05-07T05:12:07;8.70;99.90
20740;DHT22;10530;49.968;19.844;2023-05-07T05:17:12;8.60;99.90
20740;DHT22;10530;49.968;19.844;2023-05-07T05:22:15;8.60;99.90
20740;DHT22;10530;49.968;19.844;2023-05-07T05:27:18;8.60;99.90
20740;DHT22;10530;49.968;19.844;2023-05-07T05:32:21;8.60;99.90
20740;DHT22;10530;49.968;19.844;2023-05-07T05:37:28;8.60;99.90
20740;DHT22;10530;49.968;19.844;2023-05-07T05:42:34;8.70;99.90
20740;DHT22;10530;49.968;19.844;2023-05-07T05:47:37;8.70;99.90
20740;DHT22;10530;49.968;19.844;2023-05-07T05:52:41;8.70;99.90
20740;DHT22;10530;49.968;19.844;2023-05-07T05:57:45;8.70;99.90
20740;DHT22;10530;49.968;19.844;2023-05-07T06:02:49;8.70;99.90
20740;DHT22;10530;49.968;19.844;2023-05-07T06:07:57;8.60;99.90
20740;DHT22;10530;49.968;19.844;2023-05-07T06:13:04;8.60;99.90
20740;DHT22;10530;49.968;19.844;2023-05-07T06:18:08;8.60;99.90
20740;DHT22;10530;49.968;19.844;2023-05-07T06:23:12;8.50;99.90
20740;DHT22;10530;49.968;19.844;2023-05-07T06:28:18;8.40;99.90
20740;DHT22;10530;49.968;19.844;2023-05-07T06:33:21;8.40;99.90
20740;DHT22;10530;49.968;19.844;2023-05-07T06:38:24;8.10;99.90
20740;DHT22;10530;49.968;19.844;2023-05-07T06:43:27;8.10;99.90
20740;DHT22;10530;49.968;19.844;2023-05-07T06:49:08;8.20;99.90
20740;DHT22;10530;49.968;19.844;2023-05-07T06:54:11;8.10;99.90
20740;DHT22;10530;49.968;19.844;2023-05-07T06:59:16;8.10;99.90
20740;DHT22;10530;49.968;19.844;2023-05-07T07:04:18;8.20;99.90
20740;DHT22;10530;49.968;19.844;2023-05-07T07:09:28;8.10;99.90
20740;DHT22;10530;49.968;19.844;2023-05-07T07:14:32;8.00;99.90
20740;DHT22;10530;49.968;19.844;2023-05-07T07:19:35;8.10;99.90
20740;DHT22;10530;49.968;19.844;2023-05-07T07:24:39;8.20;99.90
20740;DHT22;10530;49.968;19.844;2023-05-07T07:29:44;8.20;99.90
20740;DHT22;10530;49.968;19.844;2023-05-07T07:34:47;8.20;99.90
20740;DHT22;10530;49.968;19.844;2023-05-07T07:39:50;8.20;99.90
20740;DHT22;10530;49.968;19.844;2023-05-07T07:44:55;8.20;99.90
20740;DHT22;10530;49.968;19.844;2023-05-07T07:50:02;8.20;99.90
20740;DHT22;10530;49.968;19.844;2023-05-07T07:55:06;8.20;99.90
20740;DHT22;10530;49.968;19.844;2023-05-07T08:00:10;8.20;99.90
20740;DHT22;10530;49.968;19.844;2023-05-07T08:05:24;8.20;99.90
20740;DHT22;10530;49.968;19.844;2023-05-07T08:10:28;8.30;99.90
20740;DHT22;10530;49.968;19.844;2023-05-07T08:15:38;8.20;99.90
20740;DHT22;10530;49.968;19.844;2023-05-07T08:20:42;8.30;99.90
20740;DHT22;10530;49.968;19.844;2023-05-07T08:25:50;8.30;99.90
20740;DHT22;10530;49.968;19.844;2023-05-07T08:30:54;8.40;99.90
20740;DHT22;10530;49.968;19.844;2023-05-07T08:35:59;8.50;99.90
20740;DHT22;10530;49.968;19.844;2023-05-07T08:41:03;8.50;99.90
20740;DHT22;10530;49.968;19.844;2023-05-07T08:46:06;8.40;99.90
20740;DHT22;10530;49.968;19.844;2023-05-07T08:51:20;8.50;99.90
20740;DHT22;10530;49.968;19.844;2023-05-07T08:56:24;8.40;99.90
20740;DHT22;10530;49.968;19.844;2023-05-07T09:01:29;8.40;99.90
20740;DHT22;10530;49.968;19.844;2023-05-07T09:06:33;8.40;99.90
20740;DHT22;10530;49.968;19.844;2023-05-07T09:11:36;8.40;99.90
20740;DHT22;10530;49.968;19.844;2023-05-07T09:16:39;8.30;99.90
20740;DHT22;10530;49.968;19.844;2023-05-07T09:21:43;8.30;99.90
20740;DHT22;10530;49.968;19.844;2023-05-07T09:26:47;8.20;99.90
20740;DHT22;10530;49.968;19.844;2023-05-07T09:31:50;8.10;99.90
20740;DHT22;10530;49.968;19.844;2023-05-07T09:36:55;8.10;99.90
20740;DHT22;10530;49.968;19.844;2023-05-07T09:41:59;8.10;99.90
20740;DHT22;10530;49.968;19.844;2023-05-07T09:47:08;8.10;99.90
20740;DHT22;10530;49.968;19.844;2023-05-07T09:52:19;7.80;99.90
20740;DHT22;10530;49.968;19.844;2023-05-07T09:57:27;8.10;99.90
20740;DHT22;10530;49.968;19.844;2023-05-07T10:02:35;8.20;99.90
20740;DHT22;10530;49.968;19.844;2023-05-07T10:07:40;8.20;99.90
20740;DHT22;10530;49.968;19.844;2023-05-07T10:12:45;8.10;99.90
20740;DHT22;10530;49.968;19.844;2023-05-07T10:17:58;8.20;99.90
20740;DHT22;10530;49.968;19.844;2023-05-07T10:23:04;8.40;99.90
20740;DHT22;10530;49.968;19.844;2023-05-07T10:28:15;8.30;99.90
20740;DHT22;10530;49.968;19.844;2023-05-07T10:33:24;8.20;99.90
20740;DHT22;10530;49.968;19.844;2023-05-07T10:38:29;8.30;99.90
20740;DHT22;10530;49.968;19.844;2023-05-07T10:43:41;8.50;99.90
20740;DHT22;10530;49.968;19.844;2023-05-07T10:54:31;8.50;99.90
20740;DHT22;10530;49.968;19.844;2023-05-07T10:59:43;8.70;99.90
20740;DHT22;10530;49.968;19.844;2023-05-07T11:05:20;8.40;99.90
20740;DHT22;10530;49.968;19.844;2023-05-07T11:10:55;8.20;99.90
20740;DHT22;10530;49.968;19.844;2023-05-07T11:16:23;8.40;99.90
20740;DHT22;10530;49.968;19.844;2023-05-07T11:21:39;8.10;99.90
20740;DHT22;10530;49.968;19.844;2023-05-07T11:26:55;8.10;99.90
20740;DHT22;10530;49.968;19.844;2023-05-07T11:32:00;8.30;99.90
20740;DHT22;10530;49.968;19.844;2023-05-07T11:37:11;8.40;99.90
20740;DHT22;10530;49.968;19.844;2023-05-07T11:42:45;8.30;99.90
20740;DHT22;10530;49.968;19.844;2023-05-07T11:47:49;8.10;99.90
20740;DHT22;10530;49.968;19.844;2023-05-07T11:52:51;8.10;99.90
20740;DHT22;10530;49.968;19.844;2023-05-07T11:57:55;8.10;99.90
20740;DHT22;10530;49.968;19.844;2023-05-07T12:03:05;8.10;99.90
20740;DHT22;10530;49.968;19.844;2023-05-07T12:08:08;8.30;99.90
20740;DHT22;10530;49.968;19.844;2023-05-07T12:13:18;8.40;99.90
20740;DHT22;10530;49.968;19.844;2023-05-07T12:18:23;8.30;99.90
20740;DHT22;10530;49.968;19.844;2023-05-07T12:23:26;8.50;99.90
20740;DHT22;10530;49.968;19.844;2023-05-07T12:28:29;8.40;99.90
20740;DHT22;10530;49.968;19.844;2023-05-07T12:33:34;8.80;99.90
20740;DHT22;10530;49.968;19.844;2023-05-07T12:38:38;8.90;99.90
20740;DHT22;10530;49.968;19.844;2023-05-07T12:43:45;9.00;99.90
20740;DHT22;10530;49.968;19.844;2023-05-07T12:48:48;8.60;99.90
20740;DHT22;10530;49.968;19.844;2023-05-07T12:53:56;8.70;99.90
20740;DHT22;10530;49.968;19.844;2023-05-07T12:58:59;8.70;99.90
20740;DHT22;10530;49.968;19.844;2023-05-07T13:04:03;8.40;99.90
20740;DHT22;10530;49.968;19.844;2023-05-07T13:09:06;8.40;99.90
20740;DHT22;10530;49.968;19.844;2023-05-07T13:14:09;8.30;99.90
20740;DHT22;10530;49.968;19.844;2023-05-07T13:19:12;8.40;99.90
20740;DHT22;10530;49.968;19.844;2023-05-07T13:24:14;8.20;99.90
20740;DHT22;10530;49.968;19.844;2023-05-07T13:29:17;8.10;99.90
20740;DHT22;10530;49.968;19.844;2023-05-07T13:34:20;8.00;99.90
20740;DHT22;10530;49.968;19.844;2023-05-07T13:39:23;7.90;99.90
20740;DHT22;10530;49.968;19.844;2023-05-07T13:44:26;8.10;99.90
20740;DHT22;10530;49.968;19.844;2023-05-07T13:49:29;8.00;99.90
20740;DHT22;10530;49.968;19.844;2023-05-07T13:54:32;7.90;99.90
20740;DHT22;10530;49.968;19.844;2023-05-07T13:59:35;8.10;99.90
20740;DHT22;10530;49.968;19.844;2023-05-07T14:04:38;8.10;99.90
20740;DHT22;10530;49.968;19.844;2023-05-07T14:09:41;8.20;99.90
20740;DHT22;10530;49.968;19.844;2023-05-07T14:14:43;8.10;99.90
20740;DHT22;10530;49.968;19.844;2023-05-07T14:19:47;8.10;99.90
20740;DHT22;10530;49.968;19.844;2023-05-07T14:24:50;8.00;99.90
20740;DHT22;10530;49.968;19.844;2023-05-07T14:30:08;8.40;99.90
20740;DHT22;10530;49.968;19.844;2023-05-07T14:35:11;8.50;99.90
20740;DHT22;10530;49.968;19.844;2023-05-07T14:40:14;8.50;99.90
20740;DHT22;10530;49.968;19.844;2023-05-07T14:45:17;8.40;99.90
20740;DHT22;10530;49.968;19.844;2023-05-07T14:50:21;8.20;99.90
20740;DHT22;10530;49.968;19.844;2023-05-07T14:55:24;8.40;99.90
20740;DHT22;10530;49.968;19.844;2023-05-07T15:00:27;8.50;99.90
20740;DHT22;10530;49.968;19.844;2023-05-07T15:05:30;8.40;99.90
20740;DHT22;10530;49.968;19.844;2023-05-07T15:10:37;8.00;99.90
20740;DHT22;10530;49.968;19.844;2023-05-07T15:15:44;8.00;99.90
20740;DHT22;10530;49.968;19.844;2023-05-07T15:20:48;7.90;99.90
20740;DHT22;10530;49.968;19.844;2023-05-07T15:25:50;7.70;99.90
20740;DHT22;10530;49.968;19.844;2023-05-07T15:30:55;7.70;99.90
20740;DHT22;10530;49.968;19.844;2023-05-07T15:35:57;7.70;99.90
20740;DHT22;10530;49.968;19.844;2023-05-07T15:41:02;7.70;99.90
20740;DHT22;10530;49.968;19.844;2023-05-07T15:46:05;7.70;99.90
20740;DHT22;10530;49.968;19.844;2023-05-07T15:51:08;7.70;99.90
20740;DHT22;10530;49.968;19.844;2023-05-07T15:56:12;7.50;99.90
20740;DHT22;10530;49.968;19.844;2023-05-07T16:01:15;7.50;99.90
20740;DHT22;10530;49.968;19.844;2023-05-07T16:06:18;7.40;99.90
20740;DHT22;10530;49.968;19.844;2023-05-07T16:11:21;7.30;99.90
20740;DHT22;10530;49.968;19.844;2023-05-07T16:16:24;7.30;99.90
20740;DHT22;10530;49.968;19.844;2023-05-07T16:21:31;7.20;99.90
20740;DHT22;10530;49.968;19.844;2023-05-07T16:26:35;7.20;99.90
20740;DHT22;10530;49.968;19.844;2023-05-07T16:31:38;7.30;99.90
20740;DHT22;10530;49.968;19.844;2023-05-07T16:36:41;7.30;99.90
20740;DHT22;10530;49.968;19.844;2023-05-07T16:41:44;7.20;99.90
20740;DHT22;10530;49.968;19.844;2023-05-07T16:46:50;7.30;99.90
20740;DHT22;10530;49.968;19.844;2023-05-07T16:51:54;7.20;99.90
20740;DHT22;10530;49.968;19.844;2023-05-07T16:56:57;7.20;99.90
20740;DHT22;10530;49.968;19.844;2023-05-07T17:02:01;7.20;99.90
20740;DHT22;10530;49.968;19.844;2023-05-07T17:07:04;7.20;99.90
20740;DHT22;10530;49.968;19.844;2023-05-07T17:12:07;7.20;99.90
20740;DHT22;10530;49.968;19.844;2023-05-07T17:17:10;7.20;99.90
20740;DHT22;10530;49.968;19.844;2023-05-07T17:22:13;7.10;99.90
20740;DHT22;10530;49.968;19.844;2023-05-07T17:27:16;7.00;99.90
20740;DHT22;10530;49.968;19.844;2023-05-07T17:32:19;7.00;99.90
20740;DHT22;10530;49.968;19.844;2023-05-07T17:37:22;6.90;99.90
20740;DHT22;10530;49.968;19.844;2023-05-07T17:42:25;6.90;99.90
20740;DHT22;10530;49.968;19.844;2023-05-07T17:47:28;7.00;99.90
20740;DHT22;10530;49.968;19.844;2023-05-07T17:52:31;7.00;99.90
20740;DHT22;10530;49.968;19.844;2023-05-07T17:57:34;6.90;99.90
20740;DHT22;10530;49.968;19.844;2023-05-07T18:02:38;6.90;99.90
20740;DHT22;10530;49.968;19.844;2023-05-07T18:07:43;6.80;99.90
20740;DHT22;10530;49.968;19.844;2023-05-07T18:12:45;6.70;99.90
20740;DHT22;10530;49.968;19.844;2023-05-07T18:17:48;6.80;99.90
20740;DHT22;10530;49.968;19.844;2023-05-07T18:22:52;6.70;99.90
20740;DHT22;10530;49.968;19.844;2023-05-07T18:27:55;6.70;99.90
20740;DHT22;10530;49.968;19.844;2023-05-07T18:32:58;6.70;99.90
20740;DHT22;10530;49.968;19.844;2023-05-07T18:38:01;6.60;99.90
20740;DHT22;10530;49.968;19.844;2023-05-07T18:43:04;6.60;99.90
20740;DHT22;10530;49.968;19.844;2023-05-07T18:48:08;6.60;99.90
20740;DHT22;10530;49.968;19.844;2023-05-07T18:53:11;6.60;99.90
20740;DHT22;10530;49.968;19.844;2023-05-07T18:58:14;6.60;99.90
20740;DHT22;10530;49.968;19.844;2023-05-07T19:03:19;6.60;99.90
20740;DHT22;10530;49.968;19.844;2023-05-07T19:08:22;6.60;99.90
20740;DHT22;10530;49.968;19.844;2023-05-07T19:13:25;6.50;99.90
20740;DHT22;10530;49.968;19.844;2023-05-07T19:18:29;6.60;99.90
20740;DHT22;10530;49.968;19.844;2023-05-07T19:23:33;6.60;99.90
20740;DHT22;10530;49.968;19.844;2023-05-07T19:28:43;6.50;99.90
20740;DHT22;10530;49.968;19.844;2023-05-07T19:33:49;6.50;99.90
20740;DHT22;10530;49.968;19.844;2023-05-07T19:38:52;6.40;99.90
20740;DHT22;10530;49.968;19.844;2023-05-07T19:43:56;6.40;99.90
20740;DHT22;10530;49.968;19.844;2023-05-07T19:48:59;6.40;99.90
20740;DHT22;10530;49.968;19.844;2023-05-07T19:54:03;6.30;99.90
20740;DHT22;10530;49.968;19.844;2023-05-07T19:59:06;6.40;99.90
20740;DHT22;10530;49.968;19.844;2023-05-07T20:04:10;6.40;99.90
20740;DHT22;10530;49.968;19.844;2023-05-07T20:09:13;6.40;99.90
20740;DHT22;10530;49.968;19.844;2023-05-07T20:14:16;6.30;99.90
20740;DHT22;10530;49.968;19.844;2023-05-07T20:19:18;6.30;99.90
20740;DHT22;10530;49.968;19.844;2023-05-07T20:24:22;6.40;99.90
20740;DHT22;10530;49.968;19.844;2023-05-07T20:29:25;6.40;99.90
20740;DHT22;10530;49.968;19.844;2023-05-07T20:34:29;6.40;99.90
20740;DHT22;10530;49.968;19.844;2023-05-07T20:39:32;6.30;99.90
20740;DHT22;10530;49.968;19.844;2023-05-07T20:44:35;6.30;99.90
20740;DHT22;10530;49.968;19.844;2023-05-07T20:49:38;6.30;99.90
20740;DHT22;10530;49.968;19.844;2023-05-07T20:54:41;6.30;99.90
20740;DHT22;10530;49.968;19.844;2023-05-07T20:59:45;6.40;99.90
20740;DHT22;10530;49.968;19.844;2023-05-07T21:04:49;6.30;99.90
20740;DHT22;10530;49.968;19.844;2023-05-07T21:09:54;6.30;99.90
20740;DHT22;10530;49.968;19.844;2023-05-07T21:14:56;6.30;99.90
20740;DHT22;10530;49.968;19.844;2023-05-07T21:19:59;6.20;99.90
20740;DHT22;10530;49.968;19.844;2023-05-07T21:25:04;6.20;99.90
20740;DHT22;10530;49.968;19.844;2023-05-07T21:30:07;6.20;99.90
20740;DHT22;10530;49.968;19.844;2023-05-07T21:35:10;6.30;99.90
20740;DHT22;10530;49.968;19.844;2023-05-07T21:40:13;6.20;99.90
20740;DHT22;10530;49.968;19.844;2023-05-07T21:45:16;6.30;99.90
20740;DHT22;10530;49.968;19.844;2023-05-07T21:50:20;6.30;99.90
20740;DHT22;10530;49.968;19.844;2023-05-07T21:55:23;6.30;99.90
20740;DHT22;10530;49.968;19.844;2023-05-07T22:00:26;6.30;99.90
20740;DHT22;10530;49.968;19.844;2023-05-07T22:05:29;6.30;99.90
20740;DHT22;10530;49.968;19.844;2023-05-07T22:10:32;6.30;99.90
20740;DHT22;10530;49.968;19.844;2023-05-07T22:15:34;6.30;99.90
20740;DHT22;10530;49.968;19.844;2023-05-07T22:20:54;6.20;99.90
20740;DHT22;10530;49.968;19.844;2023-05-07T22:25:57;6.30;99.90
20740;DHT22;10530;49.968;19.844;2023-05-07T22:31:00;6.30;99.90
20740;DHT22;10530;49.968;19.844;2023-05-07T22:36:03;6.20;99.90
20740;DHT22;10530;49.968;19.844;2023-05-07T22:41:06;6.20;99.90
20740;DHT22;10530;49.968;19.844;2023-05-07T22:46:09;6.20;99.90
20740;DHT22;10530;49.968;19.844;2023-05-07T22:51:12;6.20;99.90
20740;DHT22;10530;49.968;19.844;2023-05-07T22:56:15;6.10;99.90
20740;DHT22;10530;49.968;19.844;2023-05-07T23:01:18;6.10;99.90
20740;DHT22;10530;49.968;19.844;2023-05-07T23:06:23;6.10;99.90
20740;DHT22;10530;49.968;19.844;2023-05-07T23:11:26;6.00;99.90
20740;DHT22;10530;49.968;19.844;2023-05-07T23:16:29;6.00;99.90
20740;DHT22;10530;49.968;19.844;2023-05-07T23:21:32;6.10;99.90
20740;DHT22;10530;49.968;19.844;2023-05-07T23:26:35;6.00;99.90
20740;DHT22;10530;49.968;19.844;2023-05-07T23:31:38;6.00;99.90
20740;DHT22;10530;49.968;19.844;2023-05-07T23:36:40;6.00;99.90
20740;DHT22;10530;49.968;19.844;2023-05-07T23:41:43;6.00;99.90
20740;DHT22;10530;49.968;19.844;2023-05-07T23:46:46;5.90;99.90
20740;DHT22;10530;49.968;19.844;2023-05-07T23:51:49;5.90;99.90
20740;DHT22;10530;49.968;19.844;2023-05-07T23:56:52;5.90;99.90
